Time;durP1;ratioP1;P1;durP2;ratioP2;P2;SDS_P1;SDS_P2;PMS_P1;PMS_P2;Temp;Humidity;BMP_temperature;BMP_pressure;BME280_temperature;BME280_humidity;BME280_pressure;Samples;Min_cycle;Max_cycle;Signal;HPM_P1;HPM_P2
2021/07/05 00:02:07;;;;;;;7.45;4.10;;;;;;;-140.79;100.00;63287.88;5137338;24;20741;-76
2021/07/05 00:04:32;;;;;;;5.60;3.70;;;;;;;-140.79;100.00;63287.88;4787489;30;20031;-77
2021/07/05 00:06:58;;;;;;;5.00;3.90;;;;;;;-140.79;100.00;63287.88;4789611;30;20547;-76
2021/07/05 00:09:23;;;;;;;5.35;3.40;;;;;;;-140.79;100.00;63287.88;4798619;30;20061;-76
2021/07/05 00:11:49;;;;;;;6.10;3.67;;;;;;;-140.79;100.00;63287.88;4764886;30;20035;-76
2021/07/05 00:14:14;;;;;;;6.28;3.97;;;;;;;-140.79;100.00;63287.88;4786360;30;20092;-76
2021/07/05 00:16:40;;;;;;;6.95;3.95;;;;;;;-140.79;100.00;63287.88;4784368;29;20096;-76
2021/07/05 00:19:05;;;;;;;5.53;3.88;;;;;;;-140.79;100.00;63287.88;4784121;30;20084;-76
2021/07/05 00:21:31;;;;;;;5.13;3.85;;;;;;;-140.79;100.00;63287.88;4784325;30;20109;-76
2021/07/05 00:23:56;;;;;;;5.65;3.75;;;;;;;-140.79;100.00;63287.88;4783053;30;20132;-76
2021/07/05 00:26:22;;;;;;;6.25;4.07;;;;;;;-140.79;100.00;63287.88;4784563;30;20042;-76
2021/07/05 00:28:47;;;;;;;5.18;3.72;;;;;;;-140.79;100.00;63287.88;4783774;30;20031;-76
2021/07/05 00:31:13;;;;;;;5.35;4.18;;;;;;;-140.79;100.00;63287.88;4785128;30;20023;-76
2021/07/05 00:33:38;;;;;;;7.65;3.78;;;;;;;-140.79;100.00;63287.88;4776390;30;20023;-76
2021/07/05 00:36:04;;;;;;;4.90;3.60;;;;;;;-140.79;100.00;63287.88;4766684;30;20027;-77
2021/07/05 00:38:30;;;;;;;5.20;3.83;;;;;;;-140.79;100.00;63287.88;4771062;30;20039;-75
2021/07/05 00:40:56;;;;;;;5.55;3.50;;;;;;;-140.79;100.00;63287.88;4784114;30;20422;-76
2021/07/05 00:43:22;;;;;;;4.88;3.60;;;;;;;-140.79;100.00;63287.88;4764115;30;20038;-76
2021/07/05 00:45:47;;;;;;;5.68;3.92;;;;;;;-140.79;100.00;63287.88;4766653;30;20037;-76
2021/07/05 00:48:13;;;;;;;6.00;3.53;;;;;;;-140.79;100.00;63287.88;4783378;30;20035;-76
2021/07/05 00:50:39;;;;;;;6.75;3.70;;;;;;;-140.79;100.00;63287.88;4768237;30;20031;-76
2021/07/05 00:53:04;;;;;;;6.20;3.47;;;;;;;-140.79;100.00;63287.88;4783343;30;20495;-75
2021/07/05 00:55:32;;;;;;;4.95;4.15;;;;;;;-140.79;100.00;63287.88;4767236;30;20491;-76
2021/07/05 00:57:58;;;;;;;6.15;3.65;;;;;;;-140.79;100.00;63287.88;4783553;30;20575;-76
2021/07/05 01:00:24;;;;;;;6.15;3.70;;;;;;;-140.79;100.00;63287.88;4781364;30;20031;-76
2021/07/05 01:02:50;;;;;;;5.55;3.97;;;;;;;-140.79;100.00;63287.88;4749455;30;20084;-76
2021/07/05 01:05:17;;;;;;;4.53;3.38;;;;;;;-140.79;100.00;63287.88;4765195;30;20063;-75
2021/07/05 01:07:42;;;;;;;4.85;3.58;;;;;;;-140.79;100.00;63287.88;4749840;30;20051;-76
2021/07/05 01:10:08;;;;;;;5.45;3.70;;;;;;;-140.79;100.00;63287.88;4749754;30;20039;-76
2021/07/05 01:12:34;;;;;;;5.47;4.00;;;;;;;-140.79;100.00;63287.88;4754914;30;20050;-76
2021/07/05 01:14:59;;;;;;;4.95;3.65;;;;;;;-140.79;100.00;63287.88;4766522;30;20062;-77
2021/07/05 01:17:25;;;;;;;5.00;3.78;;;;;;;-140.79;100.00;63287.88;4782265;30;20564;-76
2021/07/05 01:19:50;;;;;;;4.72;3.90;;;;;;;-140.79;100.00;63287.88;4767163;30;20054;-76
2021/07/05 01:22:16;;;;;;;6.07;3.60;;;;;;;-140.79;100.00;63287.88;4767389;30;20356;-76
2021/07/05 01:24:42;;;;;;;4.95;3.33;;;;;;;-140.79;100.00;63287.88;4783182;30;20471;-76
2021/07/05 01:27:08;;;;;;;5.28;3.65;;;;;;;-140.79;100.00;63287.88;4782052;29;20046;-76
2021/07/05 01:29:34;;;;;;;5.78;3.75;;;;;;;-140.79;100.00;63287.88;4764175;30;20038;-75
2021/07/05 01:31:59;;;;;;;5.28;3.47;;;;;;;-140.79;100.00;63287.88;4766722;30;20027;-76
2021/07/05 01:34:25;;;;;;;4.97;3.40;;;;;;;-140.79;100.00;63287.88;4782028;30;20030;-76
2021/07/05 01:36:50;;;;;;;4.82;3.78;;;;;;;-140.79;100.00;63287.88;4764943;30;20092;-76
2021/07/05 01:39:17;;;;;;;4.90;3.67;;;;;;;-140.79;100.00;63287.88;4783196;30;20507;-76
2021/07/05 01:41:42;;;;;;;6.72;4.03;;;;;;;-140.79;100.00;63287.88;4781964;30;20039;-76
2021/07/05 01:44:07;;;;;;;4.15;3.63;;;;;;;-140.79;100.00;63287.88;4780992;30;20039;-76
2021/07/05 01:46:33;;;;;;;4.88;3.13;;;;;;;-140.79;100.00;63287.88;4783014;30;20028;-76
2021/07/05 01:48:58;;;;;;;6.75;3.50;;;;;;;-140.79;100.00;63287.88;4779137;30;20032;-76
2021/07/05 01:51:24;;;;;;;6.07;3.50;;;;;;;-140.79;100.00;63287.88;4765388;30;20039;-76
2021/07/05 01:53:49;;;;;;;4.43;3.20;;;;;;;-140.79;100.00;63287.88;4764264;30;20071;-77
2021/07/05 01:56:16;;;;;;;5.05;3.63;;;;;;;-140.79;100.00;63287.88;4781783;30;20027;-76
2021/07/05 01:58:41;;;;;;;6.35;3.80;;;;;;;-140.79;100.00;63287.88;4782339;30;20529;-76
2021/07/05 02:01:07;;;;;;;5.53;3.45;;;;;;;-140.79;100.00;63287.88;4781289;30;20035;-76
2021/07/05 02:03:32;;;;;;;4.63;3.50;;;;;;;-140.79;100.00;63287.88;4782634;29;20043;-76
2021/07/05 02:05:58;;;;;;;4.65;3.70;;;;;;;-140.79;100.00;63287.88;4781655;30;20096;-76
2021/07/05 02:08:23;;;;;;;4.85;3.63;;;;;;;-140.79;100.00;63287.88;4783428;30;20139;-76
2021/07/05 02:10:51;;;;;;;4.80;3.28;;;;;;;-140.79;100.00;63287.88;4767491;30;20046;-76
2021/07/05 02:13:27;;;;;;;4.65;3.38;;;;;;;-140.79;100.00;63287.88;4783882;30;20058;-76
2021/07/05 02:15:54;;;;;;;4.20;3.13;;;;;;;-140.79;100.00;63287.88;4782805;30;20038;-76
2021/07/05 02:18:19;;;;;;;4.50;3.17;;;;;;;-140.79;100.00;63287.88;4783020;30;20121;-76
2021/07/05 02:20:45;;;;;;;4.88;3.30;;;;;;;-140.79;100.00;63287.88;4782849;30;20050;-76
2021/07/05 02:23:11;;;;;;;7.50;4.07;;;;;;;-140.79;100.00;63287.88;4781095;30;20091;-76
2021/07/05 02:25:37;;;;;;;7.10;4.07;;;;;;;-140.79;100.00;63287.88;4782550;30;20624;-76
2021/07/05 02:28:08;;;;;;;6.20;3.50;;;;;;;-140.79;100.00;63287.88;4782039;30;20027;-77
2021/07/05 02:30:34;;;;;;;4.03;3.45;;;;;;;-140.79;100.00;63287.88;4766737;30;20042;-76
2021/07/05 02:32:59;;;;;;;6.40;3.50;;;;;;;-140.79;100.00;63287.88;4782690;30;20552;-76
2021/07/05 02:35:26;;;;;;;4.85;3.58;;;;;;;-140.79;100.00;63287.88;4782351;30;20027;-76
2021/07/05 02:37:52;;;;;;;5.15;3.60;;;;;;;-140.79;100.00;63287.88;4766135;29;20031;-77
2021/07/05 02:40:19;;;;;;;5.05;3.53;;;;;;;-140.79;100.00;63287.88;4784965;30;20023;-77
2021/07/05 02:42:45;;;;;;;6.22;3.50;;;;;;;-140.79;100.00;63287.88;4784931;30;20526;-75
2021/07/05 02:45:13;;;;;;;5.28;3.67;;;;;;;-140.79;100.00;63287.88;4755134;30;20031;-77
2021/07/05 02:47:39;;;;;;;5.53;3.55;;;;;;;-140.79;100.00;63287.88;4769136;30;20035;-77
2021/07/05 02:50:05;;;;;;;6.63;4.05;;;;;;;-140.79;100.00;63287.88;4785944;30;20035;-77
2021/07/05 02:52:31;;;;;;;6.32;3.97;;;;;;;-140.79;100.00;63287.88;4783754;30;20035;-77
2021/07/05 02:54:56;;;;;;;5.85;3.47;;;;;;;-140.79;100.00;63287.88;4769865;30;20043;-77
2021/07/05 02:57:31;;;;;;;4.63;3.50;;;;;;;-140.79;100.00;63287.88;4784824;30;20038;-77
2021/07/05 03:00:01;;;;;;;5.60;3.65;;;;;;;-140.79;100.00;63287.88;4770687;30;20039;-77
2021/07/05 03:02:30;;;;;;;4.97;3.58;;;;;;;-140.79;100.00;63287.88;4786599;29;20097;-76
2021/07/05 03:04:59;;;;;;;5.88;3.60;;;;;;;-140.79;100.00;63287.88;4787354;29;20043;-76
2021/07/05 03:07:25;;;;;;;6.70;3.65;;;;;;;-140.79;100.00;63287.88;4787533;29;20046;-77
2021/07/05 03:09:50;;;;;;;4.82;3.25;;;;;;;-140.79;100.00;63287.88;4772131;29;20031;-77
2021/07/05 03:12:16;;;;;;;6.47;3.55;;;;;;;-140.79;100.00;63287.88;4779405;29;20031;-77
2021/07/05 03:14:41;;;;;;;6.28;3.85;;;;;;;-140.79;100.00;63287.88;4799572;29;20431;-76
2021/07/05 03:17:06;;;;;;;5.18;3.63;;;;;;;-140.79;100.00;63287.88;4795766;29;20027;-77
2021/07/05 03:19:32;;;;;;;4.90;3.78;;;;;;;-140.79;100.00;63287.88;4800783;29;20097;-77
2021/07/05 03:21:57;;;;;;;5.25;3.50;;;;;;;-140.79;100.00;63287.88;4801888;29;20042;-76
2021/07/05 03:24:23;;;;;;;5.05;3.67;;;;;;;-140.79;100.00;63287.88;4784488;29;20403;-76
2021/07/05 03:26:48;;;;;;;5.72;3.72;;;;;;;-140.79;100.00;63287.88;4800304;29;20486;-77
2021/07/05 03:29:14;;;;;;;5.50;3.80;;;;;;;-140.79;100.00;63287.88;4785005;29;20039;-77
2021/07/05 03:31:39;;;;;;;5.40;3.83;;;;;;;-140.79;100.00;63287.88;4784496;29;20041;-76
2021/07/05 03:34:05;;;;;;;4.78;3.75;;;;;;;-140.79;100.00;63287.88;4786249;29;20035;-77
2021/07/05 03:36:30;;;;;;;5.35;4.10;;;;;;;-140.79;100.00;63287.88;4802600;29;20030;-76
2021/07/05 03:38:55;;;;;;;5.25;3.85;;;;;;;-140.79;100.00;63287.88;4804458;29;20113;-76
2021/07/05 03:41:21;;;;;;;6.18;4.05;;;;;;;-140.79;100.00;63287.88;4804769;29;20058;-76
2021/07/05 03:43:46;;;;;;;4.63;3.60;;;;;;;-140.79;100.00;63287.88;4814062;29;20035;-77
2021/07/05 03:46:12;;;;;;;4.95;3.90;;;;;;;-140.79;100.00;63287.88;4786523;29;20049;-75
2021/07/05 03:48:37;;;;;;;5.07;3.40;;;;;;;-140.79;100.00;63287.88;4787542;29;20077;-77
2021/07/05 03:51:03;;;;;;;5.97;3.95;;;;;;;-140.79;100.00;63287.88;4801792;29;20031;-76
2021/07/05 03:53:28;;;;;;;4.93;3.90;;;;;;;-140.79;100.00;63287.88;4783816;29;20046;-77
2021/07/05 03:55:54;;;;;;;4.93;3.55;;;;;;;-140.79;100.00;63287.88;4784078;30;20035;-77
2021/07/05 03:58:20;;;;;;;5.10;3.72;;;;;;;-140.79;100.00;63287.88;4784263;30;20035;-76
2021/07/05 04:00:45;;;;;;;5.78;3.95;;;;;;;-140.79;100.00;63287.88;4796068;29;20038;-76
2021/07/05 04:03:10;;;;;;;5.97;4.10;;;;;;;-140.79;100.00;63287.88;4793837;29;20592;-76
2021/07/05 04:05:36;;;;;;;7.20;4.53;;;;;;;-140.79;100.00;63287.88;4782533;30;20039;-77
2021/07/05 04:08:02;;;;;;;6.38;4.20;;;;;;;-140.79;100.00;63287.88;4783851;30;20035;-77
2021/07/05 04:10:28;;;;;;;7.07;3.92;;;;;;;-140.79;100.00;63287.88;4783775;30;20070;-77
2021/07/05 04:12:54;;;;;;;6.10;3.95;;;;;;;-140.79;100.00;63287.88;4782577;30;20038;-78
2021/07/05 04:15:19;;;;;;;7.57;4.00;;;;;;;-140.79;100.00;63287.88;4753194;30;20035;-79
2021/07/05 04:17:45;;;;;;;6.25;4.32;;;;;;;-140.79;100.00;63287.88;4768003;30;20039;-76
2021/07/05 04:20:12;;;;;;;5.55;4.10;;;;;;;-140.79;100.00;63287.88;4777850;30;20101;-72
2021/07/05 04:22:38;;;;;;;6.45;4.30;;;;;;;-140.79;100.00;63287.88;4773378;30;20031;-75
2021/07/05 04:25:05;;;;;;;6.03;3.80;;;;;;;-140.79;100.00;63287.88;4758603;30;20647;-75
2021/07/05 04:27:31;;;;;;;8.60;5.22;;;;;;;-140.79;100.00;63287.88;4777987;29;20038;-75
2021/07/05 04:29:56;;;;;;;7.40;5.22;;;;;;;-140.79;100.00;63287.88;4748421;30;20027;-76
2021/07/05 04:32:22;;;;;;;7.97;4.90;;;;;;;-140.79;100.00;63287.88;4774478;30;20035;-74
2021/07/05 04:34:48;;;;;;;7.00;4.50;;;;;;;-140.79;100.00;63287.88;4767771;29;20035;-73
2021/07/05 04:37:14;;;;;;;6.65;4.88;;;;;;;-140.79;100.00;63287.88;4775108;29;20032;-72
2021/07/05 04:39:39;;;;;;;8.23;4.88;;;;;;;-140.79;100.00;63287.88;4797623;29;20085;-71
2021/07/05 04:42:04;;;;;;;7.95;4.57;;;;;;;-140.79;100.00;63287.88;4788264;29;20034;-73
2021/07/05 04:44:30;;;;;;;7.25;4.45;;;;;;;-140.79;100.00;63287.88;4798401;29;20042;-73
2021/07/05 04:46:55;;;;;;;6.50;4.60;;;;;;;-140.79;100.00;63287.88;4796617;29;20481;-72
2021/07/05 04:49:21;;;;;;;5.97;4.60;;;;;;;-140.79;100.00;63287.88;4799633;29;20624;-74
2021/07/05 04:51:46;;;;;;;5.05;4.10;;;;;;;-140.79;100.00;63287.88;4806819;29;20556;-73
2021/07/05 04:54:12;;;;;;;6.15;4.72;;;;;;;-140.79;100.00;63287.88;4760801;29;20027;-72
2021/07/05 04:56:38;;;;;;;6.82;4.53;;;;;;;-140.79;100.00;63287.88;4787400;29;20042;-74
2021/07/05 04:59:03;;;;;;;6.57;4.20;;;;;;;-140.79;100.00;63287.88;4782527;29;20032;-72
2021/07/05 05:01:29;;;;;;;6.50;4.88;;;;;;;-140.79;100.00;63287.88;4781303;29;20132;-82
2021/07/05 05:03:54;;;;;;;6.35;4.80;;;;;;;-140.79;100.00;63287.88;4794457;29;20549;-80
2021/07/05 05:06:20;;;;;;;6.63;4.82;;;;;;;-140.79;100.00;63287.88;4779720;29;20027;-76
2021/07/05 05:08:45;;;;;;;8.48;4.80;;;;;;;-140.79;100.00;63287.88;4795888;29;20101;-82
2021/07/05 05:11:11;;;;;;;8.18;4.55;;;;;;;-140.79;100.00;63287.88;4789661;29;20031;-84
2021/07/05 05:13:37;;;;;;;6.47;4.75;;;;;;;-140.79;100.00;63287.88;4791460;29;20034;-82
2021/07/05 05:16:02;;;;;;;9.35;5.90;;;;;;;-140.79;100.00;63287.88;4782236;29;20045;-82
2021/07/05 05:18:28;;;;;;;9.40;5.10;;;;;;;-140.79;100.00;63287.88;4803626;29;20569;-83
2021/07/05 05:20:55;;;;;;;6.68;4.65;;;;;;;-140.79;100.00;63287.88;4798464;29;20035;-84
2021/07/05 05:23:20;;;;;;;7.95;4.45;;;;;;;-140.79;100.00;63287.88;4804455;29;20562;-76
2021/07/05 05:25:46;;;;;;;6.15;4.10;;;;;;;-140.79;100.00;63287.88;4815145;29;20054;-75
2021/07/05 05:28:11;;;;;;;7.13;4.25;;;;;;;-140.79;100.00;63287.88;4811697;29;20060;-74
2021/07/05 05:30:37;;;;;;;9.35;4.60;;;;;;;-140.79;100.00;63287.88;4813859;29;20034;-75
2021/07/05 05:33:02;;;;;;;6.63;4.57;;;;;;;-140.79;100.00;63287.88;4809072;29;20026;-74
2021/07/05 05:35:28;;;;;;;5.38;3.70;;;;;;;-140.79;100.00;63287.88;4811652;29;20037;-76
2021/07/05 05:37:54;;;;;;;8.15;4.50;;;;;;;-140.79;100.00;63287.88;4828310;29;20030;-76
2021/07/05 05:40:20;;;;;;;7.00;4.72;;;;;;;-140.79;100.00;63287.88;4799516;29;20159;-74
2021/07/05 05:42:45;;;;;;;7.90;5.03;;;;;;;-140.79;100.00;63287.88;4807705;29;20034;-76
2021/07/05 05:45:11;;;;;;;8.77;5.03;;;;;;;-140.79;100.00;63287.88;4808185;29;20042;-75
2021/07/05 05:47:37;;;;;;;7.65;4.80;;;;;;;-140.79;100.00;63287.88;4819366;29;20038;-74
2021/07/05 05:50:03;;;;;;;11.68;5.13;;;;;;;-140.79;100.00;63287.88;4801829;29;20023;-75
2021/07/05 05:52:29;;;;;;;7.32;4.78;;;;;;;-140.79;100.00;63287.88;4815956;29;20086;-77
2021/07/05 05:54:54;;;;;;;7.85;4.72;;;;;;;-140.79;100.00;63287.88;4808820;29;20026;-75
2021/07/05 05:57:27;;;;;;;8.25;4.40;;;;;;;-140.79;100.00;63287.88;4803133;29;20034;-73
2021/07/05 05:59:58;;;;;;;9.43;5.80;;;;;;;-140.79;100.00;63287.88;4785822;29;20062;-74
2021/07/05 06:02:24;;;;;;;10.70;4.70;;;;;;;-140.79;100.00;63287.88;4754022;29;20272;-73
2021/07/05 06:04:49;;;;;;;7.53;4.85;;;;;;;-140.79;100.00;63287.88;4806570;29;20326;-75
2021/07/05 06:07:15;;;;;;;5.78;4.50;;;;;;;-140.79;100.00;63287.88;4795332;29;20110;-75
2021/07/05 06:09:40;;;;;;;5.78;4.65;;;;;;;-140.79;100.00;63287.88;4773024;30;20031;-73
2021/07/05 06:12:06;;;;;;;8.70;5.18;;;;;;;-140.79;100.00;63287.88;4800191;29;20027;-72
2021/07/05 06:14:31;;;;;;;7.75;5.00;;;;;;;-140.79;100.00;63287.88;4795757;29;20413;-74
2021/07/05 06:16:57;;;;;;;7.90;4.32;;;;;;;-140.79;100.00;63287.88;4797115;29;20035;-74
2021/07/05 06:19:22;;;;;;;7.88;4.97;;;;;;;-140.79;100.00;63287.88;4801165;29;20601;-73
2021/07/05 06:21:48;;;;;;;6.22;4.32;;;;;;;-140.79;100.00;63287.88;4798875;29;20039;-73
2021/07/05 06:24:13;;;;;;;7.03;4.40;;;;;;;-140.79;100.00;63287.88;4795406;29;20035;-74
2021/07/05 06:26:39;;;;;;;6.60;4.43;;;;;;;-140.79;100.00;63287.88;4799228;29;20053;-73
2021/07/05 06:29:05;;;;;;;6.55;4.13;;;;;;;-140.79;100.00;63287.88;4795097;29;20054;-73
2021/07/05 06:31:35;;;;;;;5.30;4.30;;;;;;;-140.79;100.00;63287.88;4795663;29;20027;-73
2021/07/05 06:34:00;;;;;;;8.98;4.72;;;;;;;-140.79;100.00;63287.88;4797963;29;20035;-73
2021/07/05 06:36:26;;;;;;;7.45;4.10;;;;;;;-140.79;100.00;63287.88;4815317;29;20410;-74
2021/07/05 06:38:51;;;;;;;7.57;4.25;;;;;;;-140.79;100.00;63287.88;4809385;29;20038;-74
2021/07/05 06:41:17;;;;;;;6.80;4.68;;;;;;;-140.79;100.00;63287.88;4807581;29;20107;-74
2021/07/05 06:43:42;;;;;;;5.53;3.92;;;;;;;-140.79;100.00;63287.88;4818119;29;20031;-73
2021/07/05 06:46:08;;;;;;;5.95;3.80;;;;;;;-140.79;100.00;63287.88;4803576;29;20430;-74
2021/07/05 06:48:34;;;;;;;6.25;4.15;;;;;;;-140.79;100.00;63287.88;4814404;29;20030;-74
2021/07/05 06:50:59;;;;;;;6.60;5.00;;;;;;;-140.79;100.00;63287.88;4792788;29;20034;-73
2021/07/05 06:53:26;;;;;;;6.85;4.28;;;;;;;-140.79;100.00;63287.88;4790201;29;20038;-73
2021/07/05 06:55:51;;;;;;;7.57;4.45;;;;;;;-140.79;100.00;63287.88;4793896;29;20034;-74
2021/07/05 06:58:16;;;;;;;6.85;3.85;;;;;;;-140.79;100.00;63287.88;4790275;29;20031;-73
2021/07/05 07:00:42;;;;;;;7.78;4.68;;;;;;;-140.79;100.00;63287.88;4793740;29;20035;-74
2021/07/05 07:03:07;;;;;;;8.68;4.57;;;;;;;-140.79;100.00;63287.88;4783766;29;20051;-74
2021/07/05 07:05:33;;;;;;;7.07;4.60;;;;;;;-140.79;100.00;63287.88;4775167;30;20031;-74
2021/07/05 07:07:59;;;;;;;9.13;4.50;;;;;;;-140.79;100.00;63287.88;4777303;30;20032;-74
2021/07/05 07:10:25;;;;;;;7.22;4.50;;;;;;;-140.79;100.00;63287.88;4773641;30;20038;-75
2021/07/05 07:12:52;;;;;;;9.38;4.85;;;;;;;-140.79;100.00;63287.88;4775564;30;20043;-75
2021/07/05 07:15:21;;;;;;;7.00;5.00;;;;;;;-140.79;100.00;63287.88;4758273;30;20034;-75
2021/07/05 07:17:51;;;;;;;6.25;4.50;;;;;;;-140.79;100.00;63287.88;4767945;30;20350;-74
2021/07/05 07:20:16;;;;;;;;;;;;;;;-140.79;100.00;63287.88;4768105;30;20028;-75
2021/07/05 07:22:42;;;;;;;7.88;4.78;;;;;;;-140.79;100.00;63287.88;4778802;29;20329;-75
2021/07/05 07:25:09;;;;;;;7.72;4.93;;;;;;;-140.79;100.00;63287.88;4768853;30;20049;-73
2021/07/05 07:27:35;;;;;;;9.70;5.25;;;;;;;-140.79;100.00;63287.88;4783277;30;20176;-73
2021/07/05 07:30:00;;;;;;;8.88;4.75;;;;;;;-140.79;100.00;63287.88;4785432;30;20031;-74
2021/07/05 07:32:26;;;;;;;8.75;5.40;;;;;;;-140.79;100.00;63287.88;4765863;30;20035;-74
2021/07/05 07:34:51;;;;;;;7.43;4.70;;;;;;;-140.79;100.00;63287.88;4765927;30;20052;-74
2021/07/05 07:37:17;;;;;;;8.65;5.63;;;;;;;-140.79;100.00;63287.88;4766948;30;20521;-73
2021/07/05 07:39:45;;;;;;;8.40;5.38;;;;;;;-140.79;100.00;63287.88;4751250;30;20556;-73
2021/07/05 07:42:11;;;;;;;8.88;5.03;;;;;;;-140.79;100.00;63287.88;4767216;30;20035;-76
2021/07/05 07:44:36;;;;;;;8.65;4.90;;;;;;;-140.79;100.00;63287.88;4750685;30;20659;-74
2021/07/05 07:47:03;;;;;;;8.00;5.18;;;;;;;-140.79;100.00;63287.88;4767422;29;20055;-73
2021/07/05 07:49:30;;;;;;;10.25;4.50;;;;;;;-140.79;100.00;63287.88;4785136;30;20054;-74
2021/07/05 07:51:57;;;;;;;11.68;5.43;;;;;;;-140.79;100.00;63287.88;4784178;30;20039;-74
2021/07/05 07:54:22;;;;;;;10.27;6.00;;;;;;;-140.79;100.00;63287.88;4784482;30;20097;-74
2021/07/05 07:56:47;;;;;;;9.50;5.50;;;;;;;-140.79;100.00;63287.88;4781478;30;20039;-73
2021/07/05 07:59:13;;;;;;;10.43;4.90;;;;;;;-140.79;100.00;63287.88;4750801;30;20043;-74
2021/07/05 08:01:38;;;;;;;8.38;4.93;;;;;;;-140.79;100.00;63287.88;4750393;30;20101;-74
2021/07/05 08:04:04;;;;;;;10.20;5.72;;;;;;;-140.79;100.00;63287.88;4764911;30;20761;-75
2021/07/05 08:06:29;;;;;;;10.60;5.75;;;;;;;-140.79;100.00;63287.88;4797352;29;20267;-73
2021/07/05 08:08:55;;;;;;;10.98;5.30;;;;;;;-140.79;100.00;63287.88;4797761;29;20030;-74
2021/07/05 08:11:21;;;;;;;10.45;5.50;;;;;;;-140.79;100.00;63287.88;4798966;29;20099;-73
2021/07/05 08:13:46;;;;;;;9.60;5.50;;;;;;;-140.79;100.00;63287.88;4788431;29;20039;-77
2021/07/05 08:16:12;;;;;;;8.35;4.57;;;;;;;-140.79;100.00;63287.88;4797442;29;20054;-78
2021/07/05 08:18:37;;;;;;;10.25;5.80;;;;;;;-140.79;100.00;63287.88;4787418;29;20071;-78
2021/07/05 08:21:03;;;;;;;10.25;6.05;;;;;;;-140.79;100.00;63287.88;4803148;29;20042;-79
2021/07/05 08:23:30;;;;;;;9.82;5.00;;;;;;;-140.79;100.00;63287.88;4803368;29;20041;-78
2021/07/05 08:25:55;;;;;;;10.02;4.68;;;;;;;-140.79;100.00;63287.88;4804696;29;20030;-79
2021/07/05 08:28:23;;;;;;;9.38;5.72;;;;;;;-140.79;100.00;63287.88;4803593;29;20077;-75
2021/07/05 08:30:49;;;;;;;7.20;5.03;;;;;;;-140.79;100.00;63287.88;4800459;29;20487;-78
2021/07/05 08:33:14;;;;;;;10.02;5.53;;;;;;;-140.79;100.00;63287.88;4802630;29;20070;-77
2021/07/05 08:35:40;;;;;;;8.70;5.10;;;;;;;-140.79;100.00;63287.88;4801811;29;20047;-79
2021/07/05 08:38:05;;;;;;;8.18;5.38;;;;;;;-140.79;100.00;63287.88;4802689;29;20038;-78
2021/07/05 08:40:31;;;;;;;11.38;5.20;;;;;;;-140.79;100.00;63287.88;4801992;29;20035;-77
2021/07/05 08:42:57;;;;;;;9.77;5.38;;;;;;;-140.79;100.00;63287.88;4802521;29;20026;-79
2021/07/05 08:45:22;;;;;;;9.77;5.50;;;;;;;-140.79;100.00;63287.88;4798650;29;20047;-78
2021/07/05 08:47:49;;;;;;;8.43;5.10;;;;;;;-140.79;100.00;63287.88;4779561;29;20399;-78
2021/07/05 08:50:15;;;;;;;8.57;5.45;;;;;;;-140.79;100.00;63287.88;4795196;29;20035;-76
2021/07/05 08:52:44;;;;;;;8.95;5.32;;;;;;;-140.79;100.00;63287.88;4795614;29;20450;-78
2021/07/05 08:55:10;;;;;;;7.97;5.40;;;;;;;-140.79;100.00;63287.88;4787454;29;20062;-78
2021/07/05 08:57:38;;;;;;;6.97;4.63;;;;;;;-140.79;100.00;63287.88;4801136;29;20030;-78
2021/07/05 09:00:12;;;;;;;7.93;5.28;;;;;;;-140.79;100.00;63287.88;4802514;29;20053;-78
2021/07/05 09:02:38;;;;;;;8.38;4.82;;;;;;;-140.79;100.00;63287.88;4798759;29;20082;-77
2021/07/05 09:05:04;;;;;;;9.07;5.00;;;;;;;-140.79;100.00;63287.88;4798714;29;20462;-79
2021/07/05 09:07:29;;;;;;;9.63;5.40;;;;;;;-140.79;100.00;63287.88;4803361;29;20038;-78
2021/07/05 09:10:03;;;;;;;6.80;4.82;;;;;;;-140.79;100.00;63287.88;4793749;29;20042;-78
2021/07/05 09:12:29;;;;;;;6.43;4.75;;;;;;;-140.79;100.00;63287.88;4793942;29;20118;-78
2021/07/05 09:15:11;;;;;;;7.85;4.47;;;;;;;-140.79;100.00;63287.88;4771677;30;20515;-78
2021/07/05 09:17:40;;;;;;;7.50;4.80;;;;;;;-140.79;100.00;63287.88;4791800;29;20038;-77
2021/07/05 09:20:14;;;;;;;9.40;4.50;;;;;;;-140.79;100.00;63287.88;4777087;29;20034;-78
2021/07/05 09:23:09;;;;;;;7.32;4.72;;;;;;;-140.79;100.00;63287.88;4792747;29;20047;-78
2021/07/05 09:25:35;;;;;;;7.78;4.70;;;;;;;-140.79;100.00;63287.88;4783288;30;20083;-81
2021/07/05 09:28:03;;;;;;;7.13;4.32;;;;;;;-140.79;100.00;63287.88;4791804;29;20042;-78
2021/07/05 09:30:37;;;;;;;9.10;4.47;;;;;;;-140.79;100.00;63287.88;4760211;29;20506;-80
2021/07/05 09:33:23;;;;;;;8.75;4.35;;;;;;;-140.79;100.00;63287.88;4781985;29;20056;-78
2021/07/05 09:35:57;;;;;;;8.20;3.88;;;;;;;-140.79;100.00;63287.88;4801519;29;20034;-78
2021/07/05 09:38:38;;;;;;;7.18;3.88;;;;;;;-140.79;100.00;63287.88;4783601;29;20096;-77
2021/07/05 09:41:26;;;;;;;5.63;3.67;;;;;;;-140.79;100.00;63287.88;4795587;29;20042;-78
2021/07/05 09:43:58;;;;;;;6.05;3.70;;;;;;;-140.79;100.00;63287.88;4803125;29;20510;-77
2021/07/05 09:46:34;;;;;;;6.45;3.38;;;;;;;-140.79;100.00;63287.88;4783621;29;20122;-78
2021/07/05 09:49:27;;;;;;;8.43;3.35;;;;;;;-140.79;100.00;63287.88;4786810;29;20640;-79
2021/07/05 09:52:15;;;;;;;5.38;3.42;;;;;;;-140.79;100.00;63287.88;4797386;29;20439;-76
2021/07/05 09:54:46;;;;;;;6.55;2.85;;;;;;;-140.79;100.00;63287.88;4774979;29;20130;-81
2021/07/05 09:57:27;;;;;;;6.80;3.25;;;;;;;-140.79;100.00;63287.88;4800901;29;20125;-84
2021/07/05 10:00:05;;;;;;;4.13;3.10;;;;;;;-140.79;100.00;63287.88;4765849;29;20030;-77
2021/07/05 10:02:30;;;;;;;4.47;3.13;;;;;;;-140.79;100.00;63287.88;4812502;29;20193;-82
2021/07/05 10:05:15;;;;;;;6.57;3.25;;;;;;;-140.79;100.00;63287.88;4794884;29;20680;-79
2021/07/05 10:07:41;;;;;;;4.15;3.00;;;;;;;-140.79;100.00;63287.88;4784344;29;20058;-83
2021/07/05 10:10:14;;;;;;;4.63;3.10;;;;;;;-140.79;100.00;63287.88;4777879;29;20038;-85
2021/07/05 10:12:58;;;;;;;8.02;3.42;;;;;;;-140.79;100.00;63287.88;4789297;29;20035;-84
2021/07/05 10:15:25;;;;;;;4.15;3.22;;;;;;;-140.79;100.00;63287.88;4770694;30;20051;-86
2021/07/05 10:17:51;;;;;;;4.50;3.00;;;;;;;-140.79;100.00;63287.88;4755532;30;20027;-76
2021/07/05 10:20:18;;;;;;;5.00;2.65;;;;;;;-140.79;100.00;63287.88;4759039;29;20023;-93
2021/07/05 10:22:45;;;;;;;4.68;3.50;;;;;;;-140.79;100.00;63287.88;4767682;30;20039;-80
2021/07/05 10:25:11;;;;;;;5.55;2.80;;;;;;;-140.79;100.00;63287.88;4782162;30;20038;-75
2021/07/05 10:27:36;;;;;;;4.65;2.70;;;;;;;-140.79;100.00;63287.88;4781858;30;20042;-77
2021/07/05 10:30:03;;;;;;;5.82;3.40;;;;;;;-140.79;100.00;63287.88;4780533;30;20043;-82
2021/07/05 10:32:29;;;;;;;3.97;3.05;;;;;;;-140.79;100.00;63287.88;4783560;30;20027;-77
2021/07/05 10:34:54;;;;;;;5.85;3.00;;;;;;;-140.79;100.00;63287.88;4766374;30;20576;-77
2021/07/05 10:37:34;;;;;;;4.35;3.33;;;;;;;-140.79;100.00;63287.88;4768905;30;20034;-88
2021/07/05 10:40:00;;;;;;;;;;;;;;;-140.79;100.00;63287.88;4772117;30;20118;-80
2021/07/05 10:42:39;;;;;;;3.40;2.72;;;;;;;-140.79;100.00;63287.88;4770194;30;20091;-75
2021/07/05 10:45:08;;;;;;;4.47;2.78;;;;;;;-140.79;100.00;63287.88;4781941;30;20039;-74
2021/07/05 10:47:41;;;;;;;4.40;3.08;;;;;;;-140.79;100.00;63287.88;4764573;30;20042;-74
2021/07/05 10:50:07;;;;;;;5.65;3.10;;;;;;;-140.79;100.00;63287.88;4757399;30;20419;-74
2021/07/05 10:52:49;;;;;;;5.68;2.90;;;;;;;-140.79;100.00;63287.88;4777310;30;20119;-74
2021/07/05 10:55:35;;;;;;;4.53;3.00;;;;;;;-140.79;100.00;63287.88;4778320;30;20096;-75
2021/07/05 10:58:00;;;;;;;5.40;3.33;;;;;;;-140.79;100.00;63287.88;4795755;29;20039;-73
2021/07/05 11:00:25;;;;;;;4.97;3.22;;;;;;;-140.79;100.00;63287.88;4811241;29;20037;-75
2021/07/05 11:02:53;;;;;;;5.78;3.20;;;;;;;-140.79;100.00;63287.88;4797846;29;20055;-74
2021/07/05 11:05:30;;;;;;;4.80;3.00;;;;;;;-140.79;100.00;63287.88;4812699;29;20019;-75
2021/07/05 11:07:56;;;;;;;5.75;3.13;;;;;;;-140.79;100.00;63287.88;4788235;30;20027;-74
2021/07/05 11:10:29;;;;;;;3.97;2.60;;;;;;;-140.79;100.00;63287.88;4775068;30;20031;-74